createdAt,value
2017-10-23T00:00:07.989Z,22.07
2017-10-23T00:00:48.441Z,22.04
2017-10-23T00:01:28.890Z,22.07
2017-10-23T00:02:09.330Z,22.06
2017-10-23T00:02:49.777Z,22.08
2017-10-23T00:03:30.229Z,22.03
2017-10-23T00:04:10.679Z,22.03
2017-10-23T00:04:51.132Z,22.03
2017-10-23T00:05:31.565Z,22.03
2017-10-23T00:06:11.995Z,21.97
2017-10-23T00:06:52.465Z,22.03
2017-10-23T00:07:32.920Z,21.99
2017-10-23T00:08:13.373Z,21.97
2017-10-23T00:08:53.832Z,21.99
2017-10-23T00:09:34.299Z,22.01
2017-10-23T00:10:14.750Z,21.97
2017-10-23T00:10:55.187Z,22.01
2017-10-23T00:11:35.645Z,22.04
2017-10-23T00:12:16.096Z,22.03
2017-10-23T00:12:56.530Z,22.03
2017-10-23T00:13:36.971Z,22.06
2017-10-23T00:14:17.425Z,21.99
2017-10-23T00:14:57.874Z,22.06
2017-10-23T00:15:38.347Z,22.01
2017-10-23T00:16:18.791Z,22.04
2017-10-23T00:16:59.237Z,22
2017-10-23T00:17:39.694Z,22.01
2017-10-23T00:18:20.134Z,22.06
2017-10-23T00:19:00.601Z,22.07
2017-10-23T00:19:41.062Z,22.04
2017-10-23T00:20:21.516Z,22
2017-10-23T00:21:01.956Z,22
2017-10-23T00:21:42.395Z,22.03
2017-10-23T00:22:22.854Z,22.03
2017-10-23T00:23:03.297Z,22.04
2017-10-23T00:23:43.733Z,22.01
2017-10-23T00:24:24.183Z,21.96
2017-10-23T00:25:04.626Z,22.04
2017-10-23T00:25:45.058Z,22.07
2017-10-23T00:26:25.500Z,22.04
2017-10-23T00:27:05.954Z,22.06
2017-10-23T00:27:46.390Z,22.01
2017-10-23T00:28:26.848Z,22.08
2017-10-23T00:29:07.309Z,22.06
2017-10-23T00:29:47.752Z,22.08
2017-10-23T00:30:28.215Z,22.08
2017-10-23T00:31:08.664Z,22.08
2017-10-23T00:31:49.080Z,22.04
2017-10-23T00:32:29.505Z,22.01
2017-10-23T00:33:09.956Z,22.07
2017-10-23T00:33:50.404Z,21.97
2017-10-23T00:34:30.860Z,22
2017-10-23T00:35:11.313Z,22.07
2017-10-23T00:35:51.766Z,22.03
2017-10-23T00:36:32.233Z,22
2017-10-23T00:37:12.678Z,22.04
2017-10-23T00:37:53.143Z,22.03
2017-10-23T00:38:33.601Z,22
2017-10-23T00:39:14.040Z,22.01
2017-10-23T00:39:54.506Z,22.07
2017-10-23T00:40:34.943Z,22.01
2017-10-23T00:41:15.382Z,22.04
2017-10-23T00:41:55.835Z,22.06
2017-10-23T00:42:36.286Z,22.08
2017-10-23T00:43:16.750Z,22.06
2017-10-23T00:43:57.208Z,22.07
2017-10-23T00:44:37.653Z,22.06
2017-10-23T00:45:18.110Z,22.08
2017-10-23T00:45:58.560Z,22.08
2017-10-23T00:46:39.016Z,22
2017-10-23T00:47:19.481Z,22
2017-10-23T00:47:59.925Z,22.03
2017-10-23T00:48:40.383Z,22.01
2017-10-23T00:49:20.837Z,21.99
2017-10-23T00:50:01.267Z,21.88
2017-10-23T00:50:41.714Z,22
2017-10-23T00:51:22.160Z,21.99
2017-10-23T00:52:02.611Z,21.96
2017-10-23T00:52:43.068Z,21.97
2017-10-23T00:53:23.527Z,22.01
2017-10-23T00:54:03.982Z,21.97
2017-10-23T00:54:44.451Z,21.96
2017-10-23T00:55:24.900Z,21.97
2017-10-23T00:56:05.336Z,21.88
2017-10-23T00:56:45.779Z,21.89
2017-10-23T00:57:26.230Z,21.91
2017-10-23T00:58:06.677Z,21.92
2017-10-23T00:58:47.111Z,21.89
2017-10-23T00:59:27.559Z,21.97
2017-10-23T01:00:08.009Z,21.92
2017-10-23T01:00:48.460Z,21.91
2017-10-23T01:01:28.899Z,21.84
2017-10-23T01:02:09.372Z,21.89
2017-10-23T01:02:49.816Z,21.85
2017-10-23T01:03:30.262Z,21.89
2017-10-23T01:04:10.745Z,21.91
2017-10-23T01:04:51.209Z,21.8
2017-10-23T01:05:31.662Z,21.8
2017-10-23T01:06:12.106Z,21.83
2017-10-23T01:06:52.549Z,21.8
2017-10-23T01:07:32.997Z,21.83
2017-10-23T01:08:13.451Z,21.8
2017-10-23T01:08:53.892Z,21.83
2017-10-23T01:09:34.347Z,21.75
2017-10-23T01:10:14.794Z,21.8
2017-10-23T01:10:55.238Z,21.83
2017-10-23T01:11:35.679Z,21.8
2017-10-23T01:12:16.117Z,21.84
2017-10-23T01:12:56.552Z,21.83
2017-10-23T01:13:36.993Z,21.8
2017-10-23T01:14:17.471Z,21.78
2017-10-23T01:14:57.918Z,21.84
2017-10-23T01:15:38.358Z,21.85
2017-10-23T01:16:18.809Z,21.78
2017-10-23T01:16:59.257Z,21.84
2017-10-23T01:17:39.712Z,21.84
2017-10-23T01:18:20.173Z,21.75
2017-10-23T01:19:00.623Z,21.72
2017-10-23T01:19:41.091Z,21.78
2017-10-23T01:20:21.536Z,21.77
2017-10-23T01:21:01.995Z,21.8
2017-10-23T01:21:42.456Z,21.8
2017-10-23T01:22:22.932Z,21.84
2017-10-23T01:23:03.373Z,21.8
2017-10-23T01:23:43.817Z,21.78
2017-10-23T01:24:24.263Z,21.77
2017-10-23T01:25:04.732Z,21.83
2017-10-23T01:25:45.159Z,21.85
2017-10-23T01:26:25.621Z,21.83
2017-10-23T01:27:06.071Z,21.7
2017-10-23T01:27:46.516Z,21.81
2017-10-23T01:28:26.964Z,21.78
2017-10-23T01:29:07.407Z,21.84
2017-10-23T01:29:47.852Z,21.84
2017-10-23T01:30:28.302Z,21.85
2017-10-23T01:31:08.744Z,21.83
2017-10-23T01:31:49.182Z,21.77
2017-10-23T01:32:29.643Z,21.81
2017-10-23T01:33:10.101Z,21.8
2017-10-23T01:33:50.551Z,21.84
2017-10-23T01:34:30.992Z,21.85
2017-10-23T01:35:11.447Z,21.8
2017-10-23T01:35:51.886Z,21.91
2017-10-23T01:36:32.352Z,21.88
2017-10-23T01:37:12.797Z,21.8
2017-10-23T01:37:53.250Z,21.91
2017-10-23T01:38:33.702Z,21.89
2017-10-23T01:39:14.156Z,21.89
2017-10-23T01:39:54.605Z,21.88
2017-10-23T01:40:35.064Z,21.84
2017-10-23T01:41:15.492Z,21.89
2017-10-23T01:41:55.940Z,21.88
2017-10-23T01:42:36.387Z,21.92
2017-10-23T01:43:16.839Z,21.89
2017-10-23T01:43:57.275Z,21.81
2017-10-23T01:44:37.722Z,21.91
2017-10-23T01:45:18.171Z,21.91
2017-10-23T01:45:58.602Z,21.85
2017-10-23T01:46:39.058Z,21.88
2017-10-23T01:47:19.487Z,21.83
2017-10-23T01:47:59.935Z,21.85
2017-10-23T01:48:40.382Z,21.85
2017-10-23T01:49:20.841Z,21.8
2017-10-23T01:50:01.297Z,21.8
2017-10-23T01:50:41.738Z,21.88
2017-10-23T01:51:22.173Z,21.8
2017-10-23T01:52:02.636Z,21.85
2017-10-23T01:52:43.091Z,21.85
2017-10-23T01:53:23.543Z,21.81
2017-10-23T01:54:03.998Z,21.83
2017-10-23T01:54:44.451Z,21.83
2017-10-23T01:55:24.902Z,21.84
2017-10-23T01:56:06.386Z,21.83
2017-10-23T01:56:46.832Z,21.88
2017-10-23T01:57:27.284Z,21.81
2017-10-23T01:58:07.739Z,21.88
2017-10-23T01:58:48.197Z,21.88
2017-10-23T01:59:28.659Z,21.92
2017-10-23T02:00:09.114Z,21.85
2017-10-23T02:00:49.557Z,21.85
2017-10-23T02:01:30.004Z,21.77
2017-10-23T02:02:10.461Z,21.84
2017-10-23T02:02:50.941Z,21.85
2017-10-23T02:03:31.380Z,21.88
2017-10-23T02:04:11.829Z,21.83
2017-10-23T02:04:52.282Z,21.91
2017-10-23T02:05:32.748Z,21.85
2017-10-23T02:06:13.191Z,21.8
2017-10-23T02:06:53.644Z,21.84
2017-10-23T02:07:34.088Z,21.94
2017-10-23T02:08:14.536Z,21.89
2017-10-23T02:08:54.990Z,21.83
2017-10-23T02:09:35.438Z,21.85
2017-10-23T02:10:15.888Z,21.94
2017-10-23T02:10:56.352Z,21.91
2017-10-23T02:11:36.797Z,21.88
2017-10-23T02:12:17.241Z,21.88
2017-10-23T02:12:57.693Z,21.92
2017-10-23T02:13:38.137Z,21.91
2017-10-23T02:14:18.592Z,21.85
2017-10-23T02:14:59.050Z,21.85
2017-10-23T02:15:39.488Z,21.88
2017-10-23T02:16:19.939Z,21.91
2017-10-23T02:17:00.399Z,21.88
2017-10-23T02:17:40.865Z,21.89
2017-10-23T02:18:21.323Z,21.92
2017-10-23T02:19:01.799Z,21.83
2017-10-23T02:19:42.265Z,21.85
2017-10-23T02:20:22.729Z,21.83
2017-10-23T02:21:03.187Z,21.88
2017-10-23T02:21:43.660Z,21.88
2017-10-23T02:22:24.105Z,21.77
2017-10-23T02:23:04.564Z,21.83
2017-10-23T02:23:45.008Z,21.85
2017-10-23T02:24:25.461Z,21.84
2017-10-23T02:25:05.908Z,21.89
2017-10-23T02:25:46.374Z,21.83
2017-10-23T02:26:26.836Z,21.83
2017-10-23T02:27:07.307Z,21.88
2017-10-23T02:27:47.743Z,21.85
2017-10-23T02:28:28.206Z,21.83
2017-10-23T02:29:08.650Z,21.83
2017-10-23T02:29:49.103Z,21.8
2017-10-23T02:30:29.550Z,21.84
2017-10-23T02:31:10.021Z,21.77
2017-10-23T02:31:50.473Z,21.74
2017-10-23T02:32:30.935Z,21.84
2017-10-23T02:33:11.394Z,21.88
2017-10-23T02:33:51.844Z,21.84
2017-10-23T02:34:32.321Z,21.8
2017-10-23T02:35:12.754Z,21.84
2017-10-23T02:35:53.217Z,21.83
2017-10-23T02:36:33.658Z,21.88
2017-10-23T02:37:14.095Z,21.83
2017-10-23T02:37:54.543Z,21.84
2017-10-23T02:38:35.003Z,21.78
2017-10-23T02:39:15.445Z,21.88
2017-10-23T02:39:55.891Z,21.83
2017-10-23T02:40:36.357Z,21.83
2017-10-23T02:41:16.803Z,21.88
2017-10-23T02:41:57.255Z,21.84
2017-10-23T02:42:37.710Z,21.84
2017-10-23T02:43:18.174Z,21.85
2017-10-23T02:43:58.625Z,21.83
2017-10-23T02:44:39.080Z,21.84
2017-10-23T02:45:19.528Z,21.77
2017-10-23T02:45:59.985Z,21.78
2017-10-23T02:46:40.446Z,21.77
2017-10-23T02:47:20.898Z,21.78
2017-10-23T02:48:01.345Z,21.75
2017-10-23T02:48:41.803Z,21.78
2017-10-23T02:49:22.257Z,21.8
2017-10-23T02:50:02.708Z,21.8
2017-10-23T02:50:43.146Z,21.77
2017-10-23T02:51:23.604Z,21.81
2017-10-23T02:52:04.076Z,21.75
2017-10-23T02:52:44.505Z,21.8
2017-10-23T02:53:24.948Z,21.74
2017-10-23T02:54:05.421Z,21.8
2017-10-23T02:54:45.849Z,21.8
2017-10-23T02:55:26.304Z,21.78
2017-10-23T02:56:06.756Z,21.83
2017-10-23T02:56:47.215Z,21.81
2017-10-23T02:57:27.652Z,21.83
2017-10-23T02:58:08.118Z,21.83
2017-10-23T02:58:48.560Z,21.8
2017-10-23T02:59:29.005Z,21.83
2017-10-23T03:00:09.469Z,21.81
2017-10-23T03:00:49.924Z,21.81
2017-10-23T03:01:30.369Z,21.8
2017-10-23T03:02:10.829Z,21.83
2017-10-23T03:02:51.269Z,21.81
2017-10-23T03:03:31.723Z,21.72
2017-10-23T03:04:12.162Z,21.8
2017-10-23T03:04:52.610Z,21.84
2017-10-23T03:05:33.048Z,21.85
2017-10-23T03:06:13.503Z,21.83
2017-10-23T03:06:53.939Z,21.81
2017-10-23T03:07:34.391Z,21.8
2017-10-23T03:08:14.843Z,21.83
2017-10-23T03:08:55.295Z,21.77
2017-10-23T03:09:35.762Z,21.8
2017-10-23T03:10:16.218Z,21.75
2017-10-23T03:10:56.662Z,21.84
2017-10-23T03:11:37.114Z,21.8
2017-10-23T03:12:17.578Z,21.83
2017-10-23T03:12:58.034Z,21.78
2017-10-23T03:13:38.522Z,21.85
2017-10-23T03:14:18.948Z,21.78
2017-10-23T03:14:59.413Z,21.83
2017-10-23T03:15:39.870Z,21.8
2017-10-23T03:16:20.325Z,21.8
2017-10-23T03:17:00.797Z,21.77
2017-10-23T03:17:41.246Z,21.77
2017-10-23T03:18:21.679Z,21.75
2017-10-23T03:19:02.122Z,21.74
2017-10-23T03:19:42.568Z,21.78
2017-10-23T03:20:23.018Z,21.74
2017-10-23T03:21:03.459Z,21.81
2017-10-23T03:21:43.921Z,21.74
2017-10-23T03:22:24.373Z,21.83
2017-10-23T03:23:04.828Z,21.72
2017-10-23T03:23:45.277Z,21.8
2017-10-23T03:24:25.737Z,21.72
2017-10-23T03:25:06.195Z,21.81
2017-10-23T03:25:46.672Z,21.77
2017-10-23T03:26:27.099Z,21.8
2017-10-23T03:27:07.550Z,21.74
2017-10-23T03:27:48.001Z,21.77
2017-10-23T03:28:28.437Z,21.74
2017-10-23T03:29:08.895Z,21.74
2017-10-23T03:29:49.343Z,21.74
2017-10-23T03:30:29.795Z,21.72
2017-10-23T03:31:10.241Z,21.74
2017-10-23T03:31:50.692Z,21.77
2017-10-23T03:32:31.152Z,21.77
2017-10-23T03:33:11.605Z,21.75
2017-10-23T03:33:52.058Z,21.77
2017-10-23T03:34:32.527Z,21.75
2017-10-23T03:35:12.977Z,21.74
2017-10-23T03:35:53.417Z,21.74
2017-10-23T03:36:33.863Z,21.8
2017-10-23T03:37:14.320Z,21.77
2017-10-23T03:37:54.783Z,21.77
2017-10-23T03:38:35.231Z,21.78
2017-10-23T03:39:15.673Z,21.8
2017-10-23T03:39:56.136Z,21.8
2017-10-23T03:40:36.566Z,21.72
2017-10-23T03:41:17.033Z,21.75
2017-10-23T03:41:57.479Z,21.77
2017-10-23T03:42:37.937Z,21.85
2017-10-23T03:43:18.390Z,21.84
2017-10-23T03:43:58.846Z,21.85
2017-10-23T03:44:39.293Z,21.81
2017-10-23T03:45:19.751Z,21.83
2017-10-23T03:46:00.211Z,21.83
2017-10-23T03:46:40.661Z,21.83
2017-10-23T03:47:21.139Z,21.8
2017-10-23T03:48:01.587Z,21.84
2017-10-23T03:48:42.060Z,21.85
2017-10-23T03:49:22.517Z,21.88
2017-10-23T03:50:02.966Z,21.85
2017-10-23T03:50:43.452Z,21.89
2017-10-23T03:51:23.905Z,21.88
2017-10-23T03:52:04.364Z,21.91
2017-10-23T03:52:44.820Z,21.83
2017-10-23T03:53:25.292Z,21.84
2017-10-23T03:54:05.747Z,21.75
2017-10-23T03:54:46.200Z,21.8
2017-10-23T03:55:26.669Z,21.8
2017-10-23T03:56:07.123Z,21.72
2017-10-23T03:56:47.574Z,21.69
2017-10-23T03:57:28.030Z,21.68
2017-10-23T03:58:08.493Z,21.63
2017-10-23T03:58:48.950Z,21.65
2017-10-23T03:59:29.410Z,21.65
2017-10-23T04:00:09.875Z,21.7
2017-10-23T04:00:50.326Z,21.62
2017-10-23T04:01:30.796Z,21.68
2017-10-23T04:02:11.242Z,21.66
2017-10-23T04:02:51.692Z,21.63
2017-10-23T04:03:32.132Z,21.69
2017-10-23T04:04:12.602Z,21.68
2017-10-23T04:04:53.052Z,21.69
2017-10-23T04:05:33.521Z,21.66
2017-10-23T04:06:13.978Z,21.72
2017-10-23T04:06:54.430Z,21.74
2017-10-23T04:07:34.877Z,21.7
2017-10-23T04:08:15.341Z,21.75
2017-10-23T04:08:55.798Z,21.75
2017-10-23T04:09:36.258Z,21.74
2017-10-23T04:10:16.739Z,21.8
2017-10-23T04:10:57.197Z,21.75
2017-10-23T04:11:37.651Z,21.8
2017-10-23T04:12:18.111Z,21.84
2017-10-23T04:12:58.566Z,21.84
2017-10-23T04:13:39.019Z,21.89
2017-10-23T04:14:19.492Z,21.91
2017-10-23T04:14:59.951Z,21.84
2017-10-23T04:15:40.398Z,21.84
2017-10-23T04:16:20.862Z,21.97
2017-10-23T04:17:01.324Z,21.96
2017-10-23T04:17:41.773Z,21.96
2017-10-23T04:18:22.219Z,21.97
2017-10-23T04:19:02.659Z,21.99
2017-10-23T04:19:43.104Z,21.99
2017-10-23T04:20:23.561Z,21.97
2017-10-23T04:21:04.011Z,22.04
2017-10-23T04:21:44.497Z,22.06
2017-10-23T04:22:24.949Z,22.1
2017-10-23T04:23:05.404Z,22.08
2017-10-23T04:23:45.873Z,22.07
2017-10-23T04:24:26.317Z,22.07
2017-10-23T04:25:06.769Z,22.06
2017-10-23T04:25:47.218Z,22.15
2017-10-23T04:26:27.672Z,22.16
2017-10-23T04:27:08.124Z,22.16
2017-10-23T04:27:48.578Z,22.16
2017-10-23T04:28:29.036Z,22.1
2017-10-23T04:29:09.487Z,22.15
2017-10-23T04:29:49.938Z,22.22
2017-10-23T04:30:30.400Z,22.21
2017-10-23T04:31:10.850Z,22.21
2017-10-23T04:31:51.300Z,22.16
2017-10-23T04:32:31.759Z,22.21
2017-10-23T04:33:12.210Z,22.28
2017-10-23T04:33:52.664Z,22.25
2017-10-23T04:34:33.113Z,22.3
2017-10-23T04:35:13.563Z,22.31
2017-10-23T04:35:54.020Z,22.26
2017-10-23T04:36:34.462Z,22.25
2017-10-23T04:37:14.920Z,22.3
2017-10-23T04:37:55.388Z,22.26
2017-10-23T04:38:35.836Z,22.28
2017-10-23T04:39:16.307Z,22.28
2017-10-23T04:39:56.719Z,22.34
2017-10-23T04:40:37.168Z,22.36
2017-10-23T04:41:17.622Z,22.3
2017-10-23T04:41:58.077Z,22.36
2017-10-23T04:42:38.533Z,22.38
2017-10-23T04:43:19.014Z,22.38
2017-10-23T04:43:59.470Z,22.36
2017-10-23T04:44:39.925Z,22.37
2017-10-23T04:45:20.408Z,22.34
2017-10-23T04:46:00.855Z,22.34
2017-10-23T04:46:41.372Z,22.36
2017-10-23T04:47:21.779Z,22.36
2017-10-23T04:48:02.238Z,22.37
2017-10-23T04:48:42.680Z,22.33
2017-10-23T04:49:23.142Z,22.37
2017-10-23T04:50:03.597Z,22.36
2017-10-23T04:50:44.051Z,22.34
2017-10-23T04:51:24.506Z,22.38
2017-10-23T04:52:04.955Z,22.36
2017-10-23T04:52:45.405Z,22.31
2017-10-23T04:53:25.861Z,22.34
2017-10-23T04:54:06.315Z,22.28
2017-10-23T04:54:46.772Z,22.37
2017-10-23T04:55:27.251Z,22.36
2017-10-23T04:56:07.719Z,22.4
2017-10-23T04:56:48.175Z,22.3
2017-10-23T04:57:28.642Z,22.26
2017-10-23T04:58:09.093Z,22.34
2017-10-23T04:58:49.539Z,22.4
2017-10-23T04:59:30.000Z,22.33
2017-10-23T05:00:10.458Z,22.34
2017-10-23T05:00:50.923Z,22.34
2017-10-23T05:01:31.372Z,22.37
2017-10-23T05:02:11.819Z,22.36
2017-10-23T05:02:52.272Z,22.34
2017-10-23T05:03:32.747Z,22.38
2017-10-23T05:04:13.200Z,22.38
2017-10-23T05:04:53.660Z,22.38
2017-10-23T05:05:34.108Z,22.37
2017-10-23T05:06:14.554Z,22.4
2017-10-23T05:06:54.997Z,22.43
2017-10-23T05:07:35.450Z,22.4
2017-10-23T05:08:15.886Z,22.43
2017-10-23T05:08:56.345Z,22.4
2017-10-23T05:09:36.780Z,22.43
2017-10-23T05:10:17.233Z,22.36
2017-10-23T05:10:57.688Z,22.41
2017-10-23T05:11:38.142Z,22.33
2017-10-23T05:12:18.595Z,22.44
2017-10-23T05:12:59.052Z,22.41
2017-10-23T05:13:39.511Z,22.38
2017-10-23T05:14:19.977Z,22.36
2017-10-23T05:15:00.477Z,22.33
2017-10-23T05:15:40.876Z,22.36
2017-10-23T05:16:21.339Z,22.37
2017-10-23T05:17:01.788Z,22.37
2017-10-23T05:17:42.250Z,22.4
2017-10-23T05:18:22.696Z,22.36
2017-10-23T05:19:03.144Z,22.38
2017-10-23T05:19:43.605Z,22.37
2017-10-23T05:20:24.061Z,22.37
2017-10-23T05:21:04.511Z,22.4
2017-10-23T05:21:44.949Z,22.41
2017-10-23T05:22:25.411Z,22.28
2017-10-23T05:23:05.860Z,22.37
2017-10-23T05:23:46.330Z,22.23
2017-10-23T05:24:26.756Z,22.23
2017-10-23T05:25:07.195Z,22.25
2017-10-23T05:25:47.641Z,22.26
2017-10-23T05:26:28.083Z,22.31
2017-10-23T05:27:08.531Z,22.36
2017-10-23T05:27:48.971Z,22.3
2017-10-23T05:28:29.431Z,22.28
2017-10-23T05:29:09.879Z,22.26
2017-10-23T05:29:50.337Z,22.3
2017-10-23T05:30:30.798Z,22.36
2017-10-23T05:31:11.250Z,22.22
2017-10-23T05:31:51.702Z,22.26
2017-10-23T05:32:32.165Z,22.31
2017-10-23T05:33:12.615Z,22.31
2017-10-23T05:33:53.077Z,22.25
2017-10-23T05:34:33.528Z,22.28
2017-10-23T05:35:13.984Z,22.26
2017-10-23T05:35:54.442Z,22.23
2017-10-23T05:36:34.887Z,22.21
2017-10-23T05:37:15.348Z,22.31
2017-10-23T05:37:55.806Z,22.25
2017-10-23T05:38:36.260Z,22.25
2017-10-23T05:39:16.696Z,22.28
2017-10-23T05:39:57.155Z,22.28
2017-10-23T05:40:37.599Z,22.22
2017-10-23T05:41:18.048Z,22.23
2017-10-23T05:41:58.490Z,22.23
2017-10-23T05:42:38.946Z,22.28
2017-10-23T05:43:19.398Z,22.19
2017-10-23T05:43:59.852Z,22.23
2017-10-23T05:44:40.312Z,22.25
2017-10-23T05:45:20.753Z,22.22
2017-10-23T05:46:01.218Z,22.19
2017-10-23T05:46:41.671Z,22.16
2017-10-23T05:47:22.124Z,22.3
2017-10-23T05:48:02.586Z,22.23
2017-10-23T05:48:43.027Z,22.25
2017-10-23T05:49:23.477Z,22.21
2017-10-23T05:50:03.940Z,22.19
2017-10-23T05:50:44.391Z,22.22
2017-10-23T05:51:24.851Z,22.22
2017-10-23T05:52:05.306Z,22.3
2017-10-23T05:52:45.761Z,22.21
2017-10-23T05:53:26.219Z,22.19
2017-10-23T05:54:06.681Z,22.23
2017-10-23T05:54:47.132Z,22.19
2017-10-23T05:55:27.584Z,22.18
2017-10-23T05:56:08.034Z,22.19
2017-10-23T05:56:48.479Z,22.25
2017-10-23T05:57:28.922Z,22.25
2017-10-23T05:58:09.376Z,22.19
2017-10-23T05:58:49.824Z,22.25
2017-10-23T05:59:30.274Z,22.22
2017-10-23T06:00:10.728Z,22.22
2017-10-23T06:00:51.191Z,22.19
2017-10-23T06:01:31.638Z,22.15
2017-10-23T06:02:12.113Z,22.22
2017-10-23T06:02:52.553Z,22.21
2017-10-23T06:03:33.010Z,22.26
2017-10-23T06:04:13.473Z,22.18
2017-10-23T06:04:53.930Z,22.19
2017-10-23T06:05:34.378Z,22.18
2017-10-23T06:06:14.832Z,22.16
2017-10-23T06:06:55.293Z,22.19
2017-10-23T06:07:35.757Z,22.16
2017-10-23T06:08:16.206Z,22.19
2017-10-23T06:08:56.657Z,22.25
2017-10-23T06:09:37.104Z,22.22
2017-10-23T06:10:17.550Z,22.28
2017-10-23T06:10:58.011Z,22.21
2017-10-23T06:11:38.465Z,22.25
2017-10-23T06:12:18.910Z,22.25
2017-10-23T06:12:59.372Z,22.28
2017-10-23T06:13:39.830Z,22.26
2017-10-23T06:14:20.298Z,22.25
2017-10-23T06:15:00.752Z,22.23
2017-10-23T06:15:41.202Z,22.28
2017-10-23T06:16:21.659Z,22.22
2017-10-23T06:17:02.103Z,22.22
2017-10-23T06:17:42.560Z,22.3
2017-10-23T06:18:23.023Z,22.22
2017-10-23T06:19:03.479Z,22.22
2017-10-23T06:19:43.940Z,22.25
2017-10-23T06:20:24.400Z,22.26
2017-10-23T06:21:04.849Z,22.25
2017-10-23T06:21:45.302Z,22.3
2017-10-23T06:22:25.760Z,22.22
2017-10-23T06:23:06.211Z,22.18
2017-10-23T06:23:46.669Z,22.3
2017-10-23T06:24:27.126Z,22.23
2017-10-23T06:25:07.580Z,22.19
2017-10-23T06:25:48.035Z,22.21
2017-10-23T06:26:28.486Z,22.22
2017-10-23T06:27:08.942Z,22.23
2017-10-23T06:27:49.393Z,22.23
2017-10-23T06:28:29.841Z,22.22
2017-10-23T06:29:10.288Z,22.15
2017-10-23T06:29:50.738Z,22.22
2017-10-23T06:30:31.175Z,22.22
2017-10-23T06:31:11.619Z,22.23
2017-10-23T06:31:52.064Z,22.18
2017-10-23T06:32:32.519Z,22.23
2017-10-23T06:33:12.973Z,22.23
2017-10-23T06:33:53.426Z,22.19
2017-10-23T06:34:33.879Z,22.16
2017-10-23T06:35:14.338Z,22.18
2017-10-23T06:35:54.784Z,22.21
2017-10-23T06:36:35.235Z,22.19
2017-10-23T06:37:15.704Z,22.18
2017-10-23T06:37:56.147Z,22.18
2017-10-23T06:38:36.597Z,22.23
2017-10-23T06:39:17.045Z,22.22
2017-10-23T06:39:57.496Z,22.19
2017-10-23T06:40:37.948Z,22.15
2017-10-23T06:41:18.406Z,22.23
2017-10-23T06:41:58.855Z,22.19
2017-10-23T06:42:39.321Z,22.25
2017-10-23T06:43:19.783Z,22.21
2017-10-23T06:44:00.231Z,22.22
2017-10-23T06:44:40.690Z,22.26
2017-10-23T06:45:21.146Z,22.18
2017-10-23T06:46:01.590Z,22.25
2017-10-23T06:46:42.044Z,22.28
2017-10-23T06:47:22.491Z,22.3
2017-10-23T06:48:02.943Z,22.28
2017-10-23T06:48:43.404Z,22.3
2017-10-23T06:49:23.857Z,22.25
2017-10-23T06:50:04.302Z,22.3
2017-10-23T06:50:44.755Z,22.25
2017-10-23T06:51:25.210Z,22.28
2017-10-23T06:52:05.662Z,22.3
2017-10-23T06:52:46.122Z,22.23
2017-10-23T06:53:26.577Z,22.23
2017-10-23T06:54:07.038Z,22.25
2017-10-23T06:54:47.491Z,22.19
2017-10-23T06:55:27.952Z,22.23
2017-10-23T06:56:08.569Z,22.16
2017-10-23T06:56:49.012Z,22.15
2017-10-23T06:57:29.470Z,22.21
2017-10-23T06:58:09.930Z,22.19
2017-10-23T06:58:50.385Z,22.31
2017-10-23T06:59:30.833Z,22.22
2017-10-23T07:00:11.297Z,22.23
2017-10-23T07:00:51.754Z,22.25
2017-10-23T07:01:32.207Z,22.18
2017-10-23T07:02:12.660Z,22.19
2017-10-23T07:02:53.109Z,22.28
2017-10-23T07:03:33.555Z,22.28
2017-10-23T07:04:14.007Z,22.23
2017-10-23T07:04:54.463Z,22.19
2017-10-23T07:05:34.922Z,22.26
2017-10-23T07:06:15.381Z,22.23
2017-10-23T07:06:55.842Z,22.3
2017-10-23T07:07:36.298Z,22.26
2017-10-23T07:08:16.743Z,22.23
2017-10-23T07:08:57.190Z,22.28
2017-10-23T07:09:37.639Z,22.22
2017-10-23T07:10:18.090Z,22.22
2017-10-23T07:10:58.542Z,22.18
2017-10-23T07:11:39.004Z,22.21
2017-10-23T07:12:19.448Z,22.25
2017-10-23T07:12:59.906Z,22.25
2017-10-23T07:13:40.364Z,22.25
2017-10-23T07:14:20.817Z,22.28
2017-10-23T07:15:01.270Z,22.23
2017-10-23T07:15:41.738Z,22.25
2017-10-23T07:16:22.184Z,22.26
2017-10-23T07:17:02.646Z,22.26
2017-10-23T07:17:43.091Z,22.25
2017-10-23T07:18:23.551Z,22.3
2017-10-23T07:19:03.993Z,22.18
2017-10-23T07:19:44.455Z,22.16
2017-10-23T07:20:24.913Z,22.22
2017-10-23T07:21:05.356Z,22.28
2017-10-23T07:21:45.813Z,22.19
2017-10-23T07:22:26.257Z,22.25
2017-10-23T07:23:06.711Z,22.22
2017-10-23T07:23:47.167Z,22.23
2017-10-23T07:24:27.632Z,22.28
2017-10-23T07:25:08.086Z,22.19
2017-10-23T07:25:48.535Z,22.23
2017-10-23T07:26:28.988Z,22.18
2017-10-23T07:27:09.443Z,22.18
2017-10-23T07:27:49.900Z,22.25
2017-10-23T07:28:30.356Z,22.18
2017-10-23T07:29:10.809Z,22.28
2017-10-23T07:29:51.267Z,22.23
2017-10-23T07:30:31.721Z,22.22
2017-10-23T07:31:12.177Z,22.26
2017-10-23T07:31:52.635Z,22.23
2017-10-23T07:32:33.097Z,22.19
2017-10-23T07:33:13.556Z,22.25
2017-10-23T07:33:54.019Z,22.25
2017-10-23T07:34:34.471Z,22.19
2017-10-23T07:35:14.927Z,22.16
2017-10-23T07:35:55.378Z,22.15
2017-10-23T07:36:35.832Z,22.16
2017-10-23T07:37:16.282Z,22.25
2017-10-23T07:37:56.745Z,22.19
2017-10-23T07:38:37.201Z,22.18
2017-10-23T07:39:17.658Z,22.19
2017-10-23T07:39:58.118Z,22.18
2017-10-23T07:40:38.571Z,22.23
2017-10-23T07:41:19.013Z,22.28
2017-10-23T07:41:59.463Z,22.26
2017-10-23T07:42:39.907Z,22.25
2017-10-23T07:43:20.367Z,22.25
2017-10-23T07:44:00.826Z,22.26
2017-10-23T07:44:41.275Z,22.3
2017-10-23T07:45:21.735Z,22.3
2017-10-23T07:46:02.196Z,22.22
2017-10-23T07:46:42.649Z,22.25
2017-10-23T07:47:23.104Z,22.3
2017-10-23T07:48:03.558Z,22.23
2017-10-23T07:48:44.002Z,22.23
2017-10-23T07:49:24.465Z,22.31
2017-10-23T07:50:06.425Z,22.25
2017-10-23T07:50:45.807Z,22.25
2017-10-23T07:51:26.326Z,22.23
2017-10-23T07:52:06.773Z,22.26
2017-10-23T07:52:47.243Z,22.23
2017-10-23T07:53:27.738Z,22.25
2017-10-23T07:54:08.150Z,22.3
2017-10-23T07:54:48.608Z,22.28
2017-10-23T07:55:29.014Z,22.28
2017-10-23T07:56:09.467Z,22.26
2017-10-23T07:56:49.937Z,22.34
2017-10-23T07:57:30.381Z,22.3
2017-10-23T07:58:10.822Z,22.3
2017-10-23T07:58:51.265Z,22.3
2017-10-23T07:59:31.722Z,22.26
2017-10-23T08:00:12.162Z,22.37
2017-10-23T08:00:52.620Z,22.28
2017-10-23T08:01:33.078Z,22.38
2017-10-23T08:02:13.532Z,22.28
2017-10-23T08:02:53.968Z,22.3
2017-10-23T08:03:34.416Z,22.38
2017-10-23T08:04:14.871Z,22.28
2017-10-23T08:04:55.322Z,22.26
2017-10-23T08:05:35.770Z,22.3
2017-10-23T08:06:16.250Z,22.25
2017-10-23T08:06:56.696Z,22.28
2017-10-23T08:07:37.128Z,22.3
2017-10-23T08:08:17.583Z,22.33
2017-10-23T08:08:58.033Z,22.34
2017-10-23T08:09:38.473Z,22.4
2017-10-23T08:10:18.935Z,22.36
2017-10-23T08:10:59.373Z,22.28
2017-10-23T08:11:39.811Z,22.34
2017-10-23T08:12:20.275Z,22.34
2017-10-23T08:13:00.718Z,22.37
2017-10-23T08:13:41.174Z,22.4
2017-10-23T08:14:21.617Z,22.36
2017-10-23T08:15:02.075Z,22.31
2017-10-23T08:15:42.524Z,22.38
2017-10-23T08:16:22.976Z,22.31
2017-10-23T08:17:03.443Z,22.34
2017-10-23T08:17:43.894Z,22.38
2017-10-23T08:18:24.342Z,22.37
2017-10-23T08:19:04.776Z,22.38
2017-10-23T08:19:45.227Z,22.37
2017-10-23T08:20:25.684Z,22.38
2017-10-23T08:21:06.130Z,22.4
2017-10-23T08:21:46.584Z,22.38
2017-10-23T08:22:27.023Z,22.4
2017-10-23T08:23:07.470Z,22.4
2017-10-23T08:23:47.930Z,22.44
2017-10-23T08:24:28.369Z,22.4
2017-10-23T08:25:08.836Z,22.43
2017-10-23T08:25:49.293Z,22.43
2017-10-23T08:26:29.756Z,22.41
2017-10-23T08:27:10.207Z,22.4
2017-10-23T08:27:50.656Z,22.41
2017-10-23T08:28:31.103Z,22.43
2017-10-23T08:29:11.553Z,22.46
2017-10-23T08:29:52.001Z,22.43
2017-10-23T08:30:32.460Z,22.43
2017-10-23T08:31:12.929Z,22.4
2017-10-23T08:31:53.388Z,22.44
2017-10-23T08:32:33.853Z,22.4
2017-10-23T08:33:14.307Z,22.36
2017-10-23T08:33:54.769Z,22.33
2017-10-23T08:34:35.233Z,22.43
2017-10-23T08:35:15.697Z,22.33
2017-10-23T08:35:56.146Z,22.34
2017-10-23T08:36:36.608Z,22.34
2017-10-23T08:37:17.061Z,22.37
2017-10-23T08:37:57.512Z,22.37
2017-10-23T08:38:37.969Z,22.34
2017-10-23T08:39:18.423Z,22.36
2017-10-23T08:39:58.884Z,22.3
2017-10-23T08:40:39.342Z,22.37
2017-10-23T08:41:19.799Z,22.38
2017-10-23T08:42:00.255Z,22.36
2017-10-23T08:42:40.715Z,22.26
2017-10-23T08:43:21.175Z,22.31